Time;durP1;ratioP1;P1;durP2;ratioP2;P2;SDS_P1;SDS_P2;PMS_P1;PMS_P2;Temp;Humidity;BMP_temperature;BMP_pressure;BME280_temperature;BME280_humidity;BME280_pressure;Samples;Min_cycle;Max_cycle;Signal;HPM_P1;HPM_P2
2022/05/08 00:01:16;;;;;;;1.08;0.70;;;16.00;61.90;;;;;;5102329;23;20451;-59
2022/05/08 00:03:18;;;;;;;4.20;0.95;;;16.00;61.90;;;;;;5070111;23;20028;-53
2022/05/08 00:05:20;;;;;;;0.88;0.60;;;16.00;62.10;;;;;;5095553;23;20099;-51
2022/05/08 00:07:24;;;;;;;1.02;0.80;;;16.00;62.10;;;;;;5076411;23;20190;-58
2022/05/08 00:09:26;;;;;;;1.05;0.70;;;16.00;62.10;;;;;;5072009;23;20131;-58
2022/05/08 00:11:28;;;;;;;0.70;0.65;;;16.00;62.20;;;;;;5099445;23;20100;-56
2022/05/08 00:13:31;;;;;;;0.88;0.73;;;16.00;62.20;;;;;;5100581;23;20507;-58
2022/05/08 00:15:33;;;;;;;2.47;1.08;;;16.00;62.20;;;;;;5104393;23;20036;-58
2022/05/08 00:17:35;;;;;;;0.85;0.65;;;16.00;62.20;;;;;;5075572;23;20095;-56
2022/05/08 00:19:39;;;;;;;1.05;0.63;;;16.00;62.20;;;;;;5070406;23;20052;-57
2022/05/08 00:21:41;;;;;;;1.88;0.90;;;16.00;62.10;;;;;;5107323;23;20829;-56
2022/05/08 00:23:43;;;;;;;1.65;0.60;;;16.10;62.80;;;;;;5097113;23;20640;-58
2022/05/08 00:25:45;;;;;;;0.60;0.60;;;16.10;62.30;;;;;;5098564;23;20352;-58
2022/05/08 00:27:47;;;;;;;1.02;0.70;;;16.10;62.30;;;;;;5103486;23;20104;-56
2022/05/08 00:29:49;;;;;;;1.10;0.60;;;16.10;62.20;;;;;;5100754;23;20440;-59
2022/05/08 00:31:51;;;;;;;1.02;0.80;;;16.10;62.70;;;;;;5102904;23;20456;-57
2022/05/08 00:33:53;;;;;;;0.98;0.75;;;16.00;62.10;;;;;;5098055;23;20388;-58
2022/05/08 00:35:55;;;;;;;2.17;0.60;;;16.10;62.10;;;;;;5099946;23;20355;-59
2022/05/08 00:37:57;;;;;;;1.08;0.65;;;16.10;62.10;;;;;;5093197;23;20566;-58
2022/05/08 00:39:59;;;;;;;0.60;0.60;;;16.10;62.10;;;;;;5095237;23;20486;-57
2022/05/08 00:42:01;;;;;;;2.88;0.68;;;16.10;62.00;;;;;;5100126;23;20102;-56
2022/05/08 00:44:04;;;;;;;1.77;0.70;;;16.10;62.30;;;;;;5095144;23;20059;-56
2022/05/08 00:46:09;;;;;;;0.60;0.60;;;16.20;62.30;;;;;;5066731;23;20033;-55
2022/05/08 00:48:11;;;;;;;1.48;0.50;;;16.20;62.40;;;;;;5099457;23;20028;-58
2022/05/08 00:50:13;;;;;;;1.65;0.75;;;16.20;62.40;;;;;;5098197;23;20440;-57
2022/05/08 00:52:17;;;;;;;0.70;0.70;;;16.20;62.30;;;;;;5094968;23;20060;-55
2022/05/08 00:54:20;;;;;;;0.52;0.52;;;16.20;62.40;;;;;;5093745;23;20024;-55
2022/05/08 00:56:22;;;;;;;1.88;0.80;;;16.20;62.30;;;;;;5100477;23;20029;-55
2022/05/08 00:58:25;;;;;;;0.50;0.35;;;16.20;62.30;;;;;;5069770;23;20072;-57
2022/05/08 01:00:27;;;;;;;0.80;0.60;;;16.20;62.40;;;;;;5094853;23;20107;-56
2022/05/08 01:02:29;;;;;;;1.13;0.77;;;16.20;62.30;;;;;;5098676;23;20471;-58
2022/05/08 01:04:32;;;;;;;0.68;0.40;;;16.20;62.40;;;;;;5097657;23;20613;-59
2022/05/08 01:06:34;;;;;;;0.47;0.45;;;16.30;62.50;;;;;;5094514;23;20043;-57
2022/05/08 01:08:38;;;;;;;0.70;0.70;;;16.30;62.40;;;;;;5094692;23;20031;-57
2022/05/08 01:10:40;;;;;;;0.70;0.40;;;16.30;62.40;;;;;;5072286;23;20401;-57
2022/05/08 01:12:46;;;;;;;1.67;0.75;;;16.30;62.40;;;;;;5095121;23;20280;-58
2022/05/08 01:15:08;;;;;;;0.88;0.73;;;16.30;62.40;;;;;;5067636;23;20039;-58
2022/05/08 01:17:10;;;;;;;1.13;0.60;;;16.30;62.40;;;;;;5098074;23;20025;-57
2022/05/08 01:19:12;;;;;;;0.30;0.30;;;16.30;62.40;;;;;;5095290;23;20476;-58
2022/05/08 01:21:19;;;;;;;0.50;0.40;;;16.30;62.40;;;;;;5068003;23;20700;-57
2022/05/08 01:23:24;;;;;;;0.60;0.60;;;16.30;62.30;;;;;;5073322;23;20389;-50
2022/05/08 01:25:26;;;;;;;1.95;0.60;;;16.30;62.30;;;;;;5070646;23;20025;-50
2022/05/08 01:27:28;;;;;;;1.05;0.47;;;16.40;62.60;;;;;;5093272;23;20039;-54
2022/05/08 01:29:31;;;;;;;3.95;0.77;;;16.40;62.70;;;;;;5095929;23;20025;-56
2022/05/08 01:31:34;;;;;;;;;;;16.40;62.70;;;;;;5072660;23;20044;-49
2022/05/08 01:33:36;;;;;;;0.80;0.43;;;16.40;62.60;;;;;;5094708;23;19919;-57
2022/05/08 01:35:39;;;;;;;0.90;0.50;;;16.40;62.70;;;;;;5092729;23;20348;-49
2022/05/08 01:37:41;;;;;;;2.10;0.75;;;16.50;62.60;;;;;;5046918;23;20093;-53
2022/05/08 01:39:43;;;;;;;1.30;0.40;;;16.50;62.60;;;;;;5070796;23;20118;-49
2022/05/08 01:41:45;;;;;;;0.90;0.40;;;16.50;62.60;;;;;;5094414;23;20039;-55
2022/05/08 01:43:47;;;;;;;0.77;0.50;;;16.50;62.50;;;;;;5096394;23;20032;-55
2022/05/08 01:45:49;;;;;;;0.55;0.40;;;16.50;62.50;;;;;;5095680;23;20536;-51
2022/05/08 01:50:13;;;;;;;1.55;0.70;;;16.60;62.60;;;;;;5096013;23;20847;-56
2022/05/08 01:52:15;;;;;;;3.10;0.50;;;16.60;62.60;;;;;;5092042;23;20036;-51
2022/05/08 01:54:17;;;;;;;1.73;0.52;;;16.60;62.60;;;;;;5093515;23;20121;-51
2022/05/08 01:56:19;;;;;;;0.35;0.35;;;16.60;62.70;;;;;;5099736;23;20355;-51
2022/05/08 01:58:22;;;;;;;0.28;0.28;;;16.60;62.60;;;;;;5094870;23;20028;-57
2022/05/08 02:00:26;;;;;;;0.40;0.40;;;16.60;62.60;;;;;;5094151;23;20063;-57
2022/05/08 02:02:28;;;;;;;0.73;0.65;;;16.70;62.70;;;;;;5070327;23;20068;-56
2022/05/08 02:04:30;;;;;;;0.85;0.40;;;16.70;62.70;;;;;;5071293;23;20551;-54
2022/05/08 02:06:32;;;;;;;0.30;0.30;;;16.70;63.30;;;;;;5093663;23;20118;-54
2022/05/08 02:08:35;;;;;;;0.50;0.50;;;16.70;63.10;;;;;;5095726;23;20512;-57
2022/05/08 02:10:38;;;;;;;0.40;0.40;;;16.80;62.70;;;;;;5071753;23;20053;-54
2022/05/08 02:12:41;;;;;;;0.40;0.40;;;16.80;63.40;;;;;;5092992;23;20035;-53
2022/05/08 02:14:43;;;;;;;0.57;0.57;;;16.80;62.70;;;;;;5093773;23;20270;-57
2022/05/08 02:16:45;;;;;;;0.50;0.40;;;16.80;62.70;;;;;;5099588;23;20024;-54
2022/05/08 02:18:47;;;;;;;0.40;0.40;;;16.80;62.70;;;;;;5067999;23;20064;-56
2022/05/08 02:20:50;;;;;;;0.40;0.30;;;16.90;62.70;;;;;;5067830;23;20025;-54
2022/05/08 02:22:52;;;;;;;1.25;0.50;;;16.90;62.80;;;;;;5096571;23;20033;-54
2022/05/08 02:24:54;;;;;;;0.47;0.35;;;16.90;62.90;;;;;;5095946;23;20666;-55
2022/05/08 02:26:56;;;;;;;0.82;0.30;;;16.90;62.90;;;;;;5068608;23;20035;-51
2022/05/08 02:28:58;;;;;;;0.30;0.30;;;17.00;62.90;;;;;;5092678;23;20024;-54
2022/05/08 02:31:00;;;;;;;0.40;0.40;;;17.00;62.90;;;;;;5096323;23;20518;-53
2022/05/08 02:33:03;;;;;;;0.43;0.43;;;17.00;62.80;;;;;;5092735;23;20035;-54
2022/05/08 02:35:06;;;;;;;0.30;0.30;;;17.00;62.70;;;;;;5094214;23;20134;-51
2022/05/08 02:37:08;;;;;;;0.40;0.40;;;17.00;62.70;;;;;;5071726;23;20473;-52
2022/05/08 02:39:11;;;;;;;1.10;0.38;;;17.10;62.70;;;;;;5097214;23;20029;-56
2022/05/08 02:41:13;;;;;;;1.60;0.60;;;17.10;62.70;;;;;;5093255;23;20028;-54
2022/05/08 02:43:17;;;;;;;1.75;0.40;;;17.20;63.20;;;;;;5096211;23;20114;-59
2022/05/08 02:45:21;;;;;;;1.10;0.43;;;17.20;63.00;;;;;;5100774;23;20116;-58
2022/05/08 02:47:23;;;;;;;1.00;0.47;;;17.20;63.10;;;;;;5097682;23;20500;-56
2022/05/08 02:49:26;;;;;;;1.90;0.55;;;17.20;63.10;;;;;;5094805;23;20170;-58
2022/05/08 02:51:28;;;;;;;1.03;0.50;;;17.20;63.00;;;;;;5096532;23;20029;-59
2022/05/08 02:53:30;;;;;;;1.00;0.68;;;17.30;63.30;;;;;;5098527;23;20308;-53
2022/05/08 03:00:14;;;;;;;3.17;0.40;;;17.30;63.30;;;;;;5099337;23;20036;-52
2022/05/08 03:02:16;;;;;;;3.67;0.98;;;17.40;62.90;;;;;;5070030;23;20128;-49
2022/05/08 03:04:18;;;;;;;1.83;0.60;;;17.50;62.80;;;;;;5094732;23;20744;-52
2022/05/08 03:06:20;;;;;;;2.85;0.52;;;17.50;62.80;;;;;;5100428;23;20029;-60
2022/05/08 03:08:22;;;;;;;2.53;0.85;;;17.60;62.90;;;;;;5115016;23;20032;-59
2022/05/08 03:10:25;;;;;;;5.68;0.90;;;17.60;63.00;;;;;;5112611;23;20060;-57
2022/05/08 03:12:27;;;;;;;1.27;0.60;;;17.60;63.00;;;;;;5125978;23;20090;-59
2022/05/08 03:14:30;;;;;;;5.40;0.88;;;17.60;62.90;;;;;;5114529;23;20020;-57
2022/05/08 03:16:32;;;;;;;11.63;1.43;;;17.70;62.90;;;;;;5086679;23;20056;-59
2022/05/08 03:18:36;;;;;;;2.08;0.70;;;17.70;62.80;;;;;;5097857;23;20345;-56
2022/05/08 03:20:40;;;;;;;4.75;0.77;;;17.70;62.80;;;;;;5101775;23;20353;-53
2022/05/08 03:22:42;;;;;;;4.18;0.93;;;17.80;62.90;;;;;;5103782;23;20032;-55
2022/05/08 03:24:44;;;;;;;5.47;0.60;;;17.80;62.80;;;;;;5073748;23;20478;-58
2022/05/08 03:26:46;;;;;;;0.55;0.43;;;17.90;62.80;;;;;;5097069;23;20365;-50
2022/05/08 03:28:49;;;;;;;2.92;0.70;;;17.90;62.80;;;;;;5102888;23;20027;-58
2022/05/08 03:30:51;;;;;;;1.85;0.60;;;18.00;62.70;;;;;;5096416;23;20040;-58
2022/05/08 03:32:53;;;;;;;1.90;0.60;;;18.00;62.70;;;;;;5095676;23;20481;-58
2022/05/08 03:34:55;;;;;;;2.05;0.60;;;18.10;62.70;;;;;;5048083;23;20386;-58
2022/05/08 03:36:57;;;;;;;10.23;1.25;;;18.10;62.50;;;;;;5098742;23;20071;-56
2022/05/08 03:38:59;;;;;;;0.95;0.70;;;18.20;62.40;;;;;;5096570;23;20028;-55
2022/05/08 03:41:02;;;;;;;0.80;0.50;;;18.20;62.20;;;;;;5098843;23;20321;-56
2022/05/08 03:43:04;;;;;;;2.53;0.50;;;18.30;62.20;;;;;;5100292;23;20219;-55
2022/05/08 03:45:07;;;;;;;3.78;0.70;;;18.30;62.00;;;;;;5096242;23;20460;-54
2022/05/08 03:47:09;;;;;;;3.85;0.60;;;18.40;62.00;;;;;;5095464;23;20360;-55
2022/05/08 03:49:11;;;;;;;3.33;0.60;;;18.40;61.90;;;;;;5102251;23;20021;-54
2022/05/08 03:51:13;;;;;;;1.25;0.55;;;18.50;61.80;;;;;;5096942;23;21017;-55
2022/05/08 03:53:15;;;;;;;1.77;0.70;;;18.60;61.70;;;;;;5067107;23;20084;-56
2022/05/08 03:55:17;;;;;;;4.93;0.80;;;18.60;61.70;;;;;;5071890;23;20100;-55
2022/05/08 03:57:19;;;;;;;2.45;0.50;;;18.70;61.60;;;;;;5099258;23;20132;-54
2022/05/08 03:59:21;;;;;;;3.72;0.90;;;18.80;61.60;;;;;;5095970;23;20028;-57
2022/05/08 04:01:23;;;;;;;1.25;0.50;;;18.80;61.50;;;;;;5098396;23;20714;-58
2022/05/08 04:03:25;;;;;;;9.88;0.88;;;18.90;61.50;;;;;;5102399;23;20036;-59
2022/05/08 04:05:29;;;;;;;2.13;0.60;;;19.00;61.30;;;;;;5096398;23;20035;-58
2022/05/08 04:07:32;;;;;;;5.88;0.85;;;19.00;61.30;;;;;;5094495;23;20134;-56
2022/05/08 04:09:34;;;;;;;4.97;0.57;;;19.10;61.30;;;;;;5102010;23;20036;-53
2022/05/08 04:11:36;;;;;;;2.08;0.98;;;19.20;61.20;;;;;;5096760;23;20212;-54
2022/05/08 04:13:38;;;;;;;8.43;1.33;;;19.20;61.10;;;;;;5095936;23;20174;-53
2022/05/08 04:18:00;;;;;;;2.78;0.55;;;19.40;61.00;;;;;;5094740;23;20029;-57
2022/05/08 04:20:02;;;;;;;3.30;0.80;;;19.40;61.00;;;;;;5099444;23;20032;-59
2022/05/08 04:24:25;;;;;;;6.97;0.82;;;19.50;60.80;;;;;;5074713;23;20047;-58
2022/05/08 04:26:29;;;;;;;3.33;0.63;;;19.60;60.90;;;;;;5096998;23;20637;-58
2022/05/08 04:28:31;;;;;;;4.88;0.77;;;19.70;60.70;;;;;;5042239;23;20506;-56
2022/05/08 04:30:34;;;;;;;6.85;0.88;;;19.70;60.70;;;;;;5071486;23;20029;-56
2022/05/08 04:32:36;;;;;;;4.53;0.63;;;19.80;60.70;;;;;;5098706;23;20028;-58
2022/05/08 04:34:39;;;;;;;0.82;0.50;;;19.80;60.50;;;;;;5094320;23;20251;-58
2022/05/08 04:36:41;;;;;;;1.55;0.45;;;19.90;60.40;;;;;;5093080;23;20029;-59
2022/05/08 04:38:43;;;;;;;6.07;0.60;;;19.90;60.40;;;;;;5099717;23;20028;-59
2022/05/08 04:40:45;;;;;;;2.35;0.70;;;20.00;60.20;;;;;;5095514;23;20462;-58
2022/05/08 04:42:47;;;;;;;1.63;0.70;;;20.10;60.30;;;;;;5093912;23;20036;-56
2022/05/08 04:44:49;;;;;;;2.28;0.50;;;20.10;60.10;;;;;;5099632;23;20047;-50
2022/05/08 04:46:51;;;;;;;5.32;1.10;;;20.20;60.00;;;;;;5095748;23;20671;-53
2022/05/08 04:48:53;;;;;;;2.60;0.63;;;20.20;59.90;;;;;;5094691;23;20040;-56
2022/05/08 04:50:55;;;;;;;2.13;0.52;;;20.30;59.30;;;;;;5096165;23;20102;-55
2022/05/08 04:52:57;;;;;;;1.15;0.60;;;20.30;58.40;;;;;;5099813;23;20383;-58
2022/05/08 04:55:03;;;;;;;4.07;0.75;;;20.40;58.10;;;;;;5093797;23;20028;-55
2022/05/08 04:57:05;;;;;;;1.00;0.70;;;20.50;57.80;;;;;;5093404;23;20028;-50
2022/05/08 04:59:07;;;;;;;1.70;0.43;;;20.60;58.00;;;;;;5097524;23;20144;-60
2022/05/08 05:01:10;;;;;;;0.75;0.40;;;20.70;58.10;;;;;;5068143;23;20180;-60
2022/05/08 05:03:12;;;;;;;2.78;0.70;;;20.80;57.90;;;;;;5091851;23;20517;-61
2022/05/08 05:05:14;;;;;;;6.30;1.25;;;20.90;57.90;;;;;;5093945;23;20421;-61
2022/05/08 05:07:17;;;;;;;7.60;1.08;;;21.00;58.20;;;;;;5099694;23;20036;-60
2022/05/08 05:09:19;;;;;;;7.78;1.30;;;21.00;57.90;;;;;;5068810;23;20029;-60
2022/05/08 05:11:21;;;;;;;12.10;1.52;;;21.10;57.80;;;;;;5064627;23;20583;-61
2022/05/08 05:13:23;;;;;;;13.45;1.13;;;21.20;57.90;;;;;;5073133;23;20502;-60
2022/05/08 05:15:25;;;;;;;4.65;1.33;;;21.20;57.60;;;;;;5094258;23;20063;-63
2022/05/08 05:17:27;;;;;;;7.50;1.25;;;21.30;57.70;;;;;;5093190;23;20933;-61
2022/05/08 05:19:29;;;;;;;4.75;1.05;;;21.40;57.70;;;;;;5095830;23;20055;-63
2022/05/08 05:21:32;;;;;;;5.25;1.00;;;21.40;57.40;;;;;;5096494;23;20356;-66
2022/05/08 05:23:37;;;;;;;6.15;1.00;;;21.40;57.40;;;;;;5091732;23;20451;-62
2022/05/08 05:25:39;;;;;;;4.50;1.17;;;21.50;57.60;;;;;;5066192;23;20469;-64
2022/05/08 05:27:41;;;;;;;4.50;1.08;;;21.50;57.40;;;;;;5098506;23;20032;-60
2022/05/08 05:29:43;;;;;;;2.75;0.60;;;21.50;57.30;;;;;;5093177;23;20305;-61
2022/05/08 05:31:45;;;;;;;3.20;0.68;;;21.50;57.60;;;;;;5093211;23;20031;-62
2022/05/08 05:33:47;;;;;;;4.32;0.68;;;21.50;57.60;;;;;;5068649;23;20123;-63
2022/05/08 05:35:49;;;;;;;0.77;0.40;;;21.50;57.60;;;;;;5069040;23;20029;-60
2022/05/08 05:37:51;;;;;;;3.25;0.70;;;21.50;57.40;;;;;;5059243;23;20036;-63
2022/05/08 05:39:54;;;;;;;5.32;0.75;;;21.50;57.50;;;;;;5089942;23;20204;-62
2022/05/08 05:41:56;;;;;;;1.33;0.90;;;21.50;57.50;;;;;;5097361;23;20338;-59
2022/05/08 05:43:58;;;;;;;1.85;0.57;;;21.50;57.50;;;;;;5091957;23;20028;-60
2022/05/08 05:48:20;;;;;;;5.07;0.70;;;21.40;57.50;;;;;;5092648;23;20028;-61
2022/05/08 05:50:23;;;;;;;0.93;0.35;;;21.40;57.60;;;;;;5092296;23;20145;-62
2022/05/08 05:52:25;;;;;;;;;;;21.40;57.60;;;;;;5071815;23;20101;-61
2022/05/08 05:54:28;;;;;;;1.27;0.55;;;21.30;57.70;;;;;;5063813;23;19926;-61
2022/05/08 05:56:30;;;;;;;0.95;0.63;;;21.30;57.90;;;;;;5090710;23;20313;-63
2022/05/08 05:58:32;;;;;;;3.75;0.65;;;21.30;57.90;;;;;;5069929;23;20036;-63
2022/05/08 06:00:34;;;;;;;3.67;0.80;;;21.30;57.90;;;;;;5093906;23;20649;-63
2022/05/08 06:02:37;;;;;;;2.22;0.45;;;21.20;58.00;;;;;;5063990;23;20461;-62
2022/05/08 06:04:39;;;;;;;0.80;0.43;;;21.20;58.00;;;;;;5090593;23;20035;-62
2022/05/08 06:06:41;;;;;;;5.43;0.65;;;21.20;58.00;;;;;;5095856;23;20135;-61
2022/05/08 06:08:43;;;;;;;3.15;0.40;;;21.20;58.10;;;;;;5091449;23;20316;-59
2022/05/08 06:10:45;;;;;;;1.27;0.30;;;21.20;58.20;;;;;;5066676;23;20036;-62
2022/05/08 06:12:48;;;;;;;0.47;0.38;;;21.10;58.10;;;;;;5098532;23;20260;-62
2022/05/08 06:14:50;;;;;;;2.35;0.30;;;21.10;58.20;;;;;;5093567;23;20063;-60
2022/05/08 06:16:54;;;;;;;1.00;0.40;;;21.10;58.30;;;;;;5091258;23;20489;-59
2022/05/08 06:18:56;;;;;;;1.13;0.40;;;21.10;58.40;;;;;;5096615;23;20034;-60
2022/05/08 06:20:58;;;;;;;8.23;0.57;;;21.10;58.50;;;;;;5096689;23;20622;-59
2022/05/08 06:23:00;;;;;;;3.85;0.60;;;21.00;58.70;;;;;;5062699;23;20028;-57
2022/05/08 06:25:04;;;;;;;0.93;0.47;;;21.00;59.30;;;;;;5091418;23;20029;-59
2022/05/08 06:27:05;;;;;;;;;;;21.00;58.60;;;;;;5072738;23;20108;-59
2022/05/08 06:29:07;;;;;;;1.70;0.73;;;21.00;58.60;;;;;;5092634;23;20284;-59
2022/05/08 06:31:09;;;;;;;1.60;0.57;;;21.00;58.70;;;;;;5092317;23;20032;-61
2022/05/08 06:33:12;;;;;;;1.52;0.30;;;21.00;58.70;;;;;;5069977;23;20032;-56
2022/05/08 06:35:14;;;;;;;2.45;0.63;;;21.00;58.80;;;;;;5093410;23;20075;-59
2022/05/08 06:37:16;;;;;;;1.25;0.43;;;21.00;58.80;;;;;;5092319;23;20135;-58
2022/05/08 06:39:18;;;;;;;2.27;0.60;;;21.00;58.70;;;;;;5095363;23;20063;-59
2022/05/08 06:41:21;;;;;;;2.72;0.80;;;21.00;58.80;;;;;;5072805;23;20083;-61
2022/05/08 06:43:23;;;;;;;0.67;0.40;;;21.00;58.70;;;;;;5040151;23;20044;-60
2022/05/08 06:45:25;;;;;;;1.13;0.30;;;21.00;58.70;;;;;;5092763;23;20298;-61
2022/05/08 06:47:27;;;;;;;3.80;0.60;;;21.10;58.40;;;;;;5098312;23;20028;-61
2022/05/08 06:49:29;;;;;;;2.22;0.82;;;21.10;58.30;;;;;;5092762;23;20523;-59
2022/05/08 06:51:32;;;;;;;2.58;0.75;;;21.10;58.60;;;;;;5094112;23;20032;-60
2022/05/08 06:53:34;;;;;;;4.47;0.80;;;21.10;58.60;;;;;;5097275;23;20110;-59
2022/05/08 06:55:36;;;;;;;1.17;0.50;;;21.10;58.70;;;;;;5094302;23;20126;-59
2022/05/08 06:57:39;;;;;;;3.08;0.70;;;21.10;59.00;;;;;;5092644;23;20490;-62
2022/05/08 07:02:01;;;;;;;4.75;0.50;;;21.00;58.90;;;;;;5063853;23;20139;-59
2022/05/08 07:04:04;;;;;;;1.75;0.60;;;21.00;59.10;;;;;;5068455;23;20418;-60
2022/05/08 07:06:07;;;;;;;3.10;0.60;;;21.00;59.10;;;;;;5070706;23;20029;-61
2022/05/08 07:08:09;;;;;;;3.03;0.40;;;21.00;59.10;;;;;;5091560;23;20207;-60
2022/05/08 07:10:11;;;;;;;3.15;0.40;;;21.00;59.10;;;;;;5093544;23;20100;-59
2022/05/08 07:12:13;;;;;;;3.70;0.45;;;21.00;59.10;;;;;;5097847;23;20059;-60
2022/05/08 07:14:16;;;;;;;1.92;0.40;;;21.00;59.10;;;;;;5090934;23;20126;-60
2022/05/08 07:16:18;;;;;;;2.83;0.80;;;21.00;59.20;;;;;;5091953;23;20021;-62
2022/05/08 07:18:21;;;;;;;2.33;1.15;;;21.00;59.20;;;;;;5097765;23;20098;-61
2022/05/08 07:20:23;;;;;;;2.85;0.32;;;20.90;59.20;;;;;;5096573;23;21147;-61
2022/05/08 07:22:26;;;;;;;1.92;0.63;;;21.00;59.30;;;;;;5090845;23;20035;-61
2022/05/08 07:24:28;;;;;;;1.33;0.47;;;21.00;59.20;;;;;;5094189;23;20036;-60
2022/05/08 07:26:31;;;;;;;0.40;0.30;;;20.90;59.20;;;;;;5100045;23;20419;-59
2022/05/08 07:28:33;;;;;;;1.67;0.47;;;20.90;59.10;;;;;;5068251;23;20151;-59
2022/05/08 07:30:35;;;;;;;0.95;0.40;;;20.90;59.10;;;;;;5093737;23;20021;-60
2022/05/08 07:32:37;;;;;;;1.92;0.50;;;20.90;59.10;;;;;;5102537;23;20052;-61
2022/05/08 07:37:03;;;;;;;0.40;0.40;;;20.90;59.10;;;;;;5110766;23;20594;-59
2022/05/08 07:39:05;;;;;;;4.47;0.82;;;20.90;59.20;;;;;;5111233;23;20035;-61
2022/05/08 07:41:07;;;;;;;1.73;0.50;;;20.90;59.10;;;;;;5107791;23;20075;-58
2022/05/08 07:43:09;;;;;;;2.87;0.50;;;20.90;59.10;;;;;;5101750;23;20024;-60
2022/05/08 07:45:11;;;;;;;2.05;0.73;;;20.90;59.20;;;;;;5105470;23;20033;-58
2022/05/08 07:47:14;;;;;;;3.38;0.85;;;20.90;59.20;;;;;;5090624;23;20032;-59
2022/05/08 07:49:16;;;;;;;8.18;1.15;;;20.90;59.10;;;;;;5041376;23;20025;-59
2022/05/08 07:51:18;;;;;;;5.65;1.13;;;20.90;59.00;;;;;;5097396;23;20484;-59
2022/05/08 07:53:21;;;;;;;3.08;1.13;;;20.90;59.10;;;;;;5091498;23;20279;-60
2022/05/08 07:55:23;;;;;;;3.90;1.20;;;20.90;59.10;;;;;;5097022;23;20024;-60
2022/05/08 07:57:25;;;;;;;4.72;0.90;;;20.90;59.10;;;;;;5098497;23;20725;-60
2022/05/08 07:59:27;;;;;;;9.50;1.52;;;20.90;59.10;;;;;;5096734;23;20742;-56
2022/05/08 08:01:29;;;;;;;4.57;1.27;;;20.90;59.20;;;;;;5066180;23;20485;-58
2022/05/08 08:03:33;;;;;;;2.53;1.70;;;20.80;59.00;;;;;;5098424;23;20040;-59
2022/05/08 08:05:35;;;;;;;2.45;1.50;;;20.90;59.70;;;;;;5100777;23;20078;-58
2022/05/08 08:07:37;;;;;;;3.45;1.60;;;20.80;60.00;;;;;;5094116;23;20028;-58
2022/05/08 08:09:39;;;;;;;4.95;1.77;;;20.90;60.10;;;;;;5095801;23;20542;-56
2022/05/08 08:11:42;;;;;;;6.43;2.38;;;20.90;60.20;;;;;;5100044;23;20028;-54
2022/05/08 08:13:45;;;;;;;4.78;2.85;;;20.90;60.10;;;;;;5070960;23;20052;-60
2022/05/08 08:15:48;;;;;;;7.00;2.58;;;20.90;60.00;;;;;;5094466;23;20386;-60
2022/05/08 08:17:50;;;;;;;6.78;2.95;;;20.90;59.80;;;;;;5096278;23;20029;-60
2022/05/08 08:19:53;;;;;;;5.20;2.42;;;20.90;59.70;;;;;;5101419;23;20029;-62
2022/05/08 08:21:55;;;;;;;4.22;3.00;;;20.90;59.70;;;;;;5091113;23;20100;-62
2022/05/08 08:23:57;;;;;;;4.82;2.90;;;20.90;59.70;;;;;;5091684;23;20028;-62
2022/05/08 08:25:59;;;;;;;10.57;3.30;;;20.90;59.60;;;;;;5099972;23;20334;-61
2022/05/08 08:28:01;;;;;;;6.25;3.25;;;20.90;59.70;;;;;;5092979;23;20246;-59
2022/05/08 08:30:04;;;;;;;6.63;3.73;;;20.90;59.70;;;;;;5093355;23;20025;-61
2022/05/08 08:32:06;;;;;;;6.22;2.90;;;20.90;59.70;;;;;;5097910;23;20463;-60
2022/05/08 08:34:08;;;;;;;5.90;3.22;;;20.90;59.70;;;;;;5098774;23;20341;-60
2022/05/08 08:36:11;;;;;;;8.05;3.42;;;20.90;59.60;;;;;;5092661;23;20277;-59
2022/05/08 08:38:14;;;;;;;6.32;3.40;;;20.90;59.70;;;;;;5093003;23;20056;-59
2022/05/08 08:40:16;;;;;;;4.70;3.45;;;20.90;59.60;;;;;;5099896;23;20063;-63
2022/05/08 08:42:31;;;;;;;4.68;3.22;;;20.90;59.60;;;;;;5093609;23;20495;-61
2022/05/08 08:49:24;;;;;;;;;;;20.90;59.60;;;;;;5096484;23;20294;-60
2022/05/08 08:51:26;;;;;;;4.88;3.53;;;20.80;59.50;;;;;;5093348;23;20363;-61
2022/05/08 08:53:30;;;;;;;5.60;3.35;;;20.80;59.50;;;;;;5099688;23;20191;-60
2022/05/08 08:55:32;;;;;;;;;;;20.80;59.50;;;;;;5097018;23;20435;-62
2022/05/08 08:57:34;;;;;;;8.32;3.53;;;20.80;59.40;;;;;;5093483;23;19930;-62
2022/05/08 08:59:37;;;;;;;6.70;3.22;;;20.80;59.50;;;;;;5097854;23;20025;-62
2022/05/08 09:01:43;;;;;;;6.80;3.53;;;20.80;59.40;;;;;;5071123;23;20029;-60
2022/05/08 09:03:45;;;;;;;6.20;3.28;;;20.80;59.50;;;;;;5093582;23;20592;-61
2022/05/08 09:05:47;;;;;;;5.70;3.25;;;20.70;59.50;;;;;;5093874;23;20123;-60
2022/05/08 09:07:53;;;;;;;4.30;3.33;;;20.70;59.50;;;;;;5098014;23;20029;-60
2022/05/08 09:10:07;;;;;;;6.03;2.70;;;20.70;59.60;;;;;;5100291;23;20083;-59
2022/05/08 09:12:17;;;;;;;5.35;3.10;;;20.70;59.60;;;;;;5072158;23;20366;-60
2022/05/08 09:14:37;;;;;;;4.80;3.10;;;20.70;59.60;;;;;;5070638;23;20675;-60
2022/05/08 09:16:55;;;;;;;5.57;3.22;;;20.70;59.60;;;;;;5093885;23;20032;-56
2022/05/08 09:18:57;;;;;;;4.80;2.95;;;20.70;59.70;;;;;;5091646;23;20127;-59
2022/05/08 09:21:54;;;;;;;4.35;2.90;;;20.60;59.80;;;;;;5098403;23;20118;-59
2022/05/08 09:23:23;;;;;;;5.43;3.00;;;20.60;59.80;;;;;;5093098;23;20024;-58
2022/05/08 09:25:26;;;;;;;5.28;2.90;;;20.60;59.20;;;;;;5098904;23;20491;-57
2022/05/08 09:27:28;;;;;;;6.40;2.97;;;20.60;59.80;;;;;;5093615;23;20412;-58
2022/05/08 09:29:30;;;;;;;5.57;2.72;;;20.60;59.80;;;;;;5092434;23;20579;-59
2022/05/08 09:31:43;;;;;;;6.15;2.78;;;20.60;59.80;;;;;;5094613;23;20504;-58
2022/05/08 09:33:47;;;;;;;3.92;2.60;;;20.60;59.80;;;;;;5089728;23;20480;-54
2022/05/08 09:35:49;;;;;;;14.73;3.35;;;20.50;59.50;;;;;;5095604;23;20227;-57
2022/05/08 09:37:56;;;;;;;5.55;3.08;;;20.50;59.50;;;;;;5063369;23;20209;-58
2022/05/08 09:40:17;;;;;;;25.63;3.80;;;20.50;59.30;;;;;;5089632;23;20024;-58
2022/05/08 09:42:39;;;;;;;7.75;2.78;;;20.50;59.70;;;;;;5066426;23;20891;-61
2022/05/08 09:45:07;;;;;;;6.15;3.08;;;20.50;59.90;;;;;;5096582;23;20037;-60
2022/05/08 09:47:29;;;;;;;8.50;2.67;;;20.50;59.90;;;;;;5089492;23;20095;-59
2022/05/08 09:49:40;;;;;;;7.80;2.50;;;20.50;59.90;;;;;;5095025;23;20032;-59
2022/05/08 09:51:43;;;;;;;7.43;2.60;;;20.50;60.00;;;;;;5064546;23;20028;-51
2022/05/08 09:53:50;;;;;;;6.35;2.60;;;20.50;60.10;;;;;;5088540;23;20024;-60
2022/05/08 09:55:54;;;;;;;5.25;2.40;;;20.50;60.00;;;;;;5086949;23;20029;-59
2022/05/08 09:57:56;;;;;;;4.53;2.33;;;20.50;60.00;;;;;;5094212;23;20029;-59
2022/05/08 09:59:59;;;;;;;18.23;3.15;;;20.50;60.10;;;;;;5095027;23;20396;-58
2022/05/08 10:02:05;;;;;;;18.25;2.83;;;20.50;60.00;;;;;;5087250;23;20538;-59
2022/05/08 10:04:07;;;;;;;11.23;3.35;;;20.50;60.20;;;;;;5089785;23;20417;-59
2022/05/08 10:06:10;;;;;;;13.73;2.88;;;20.50;60.20;;;;;;5097027;23;20406;-58
2022/05/08 10:08:16;;;;;;;10.98;2.60;;;20.50;60.20;;;;;;5091719;23;20035;-59
2022/05/08 10:15:34;;;;;;;7.28;2.50;;;20.40;60.20;;;;;;5066544;23;20329;-60
2022/05/08 10:17:36;;;;;;;13.25;2.67;;;20.40;60.20;;;;;;5094752;23;20327;-59
2022/05/08 10:19:46;;;;;;;8.30;2.45;;;20.40;60.20;;;;;;5088793;23;20067;-58
2022/05/08 10:21:56;;;;;;;11.25;2.15;;;20.40;60.20;;;;;;5089725;23;20131;-59
2022/05/08 10:23:58;;;;;;;5.97;2.15;;;20.40;60.20;;;;;;5084971;23;20461;-59
2022/05/08 10:26:20;;;;;;;7.53;2.30;;;20.40;60.10;;;;;;5091245;23;20036;-59
2022/05/08 10:28:22;;;;;;;2.97;1.90;;;20.40;60.20;;;;;;5089420;23;20031;-59
2022/05/08 10:30:24;;;;;;;20.83;2.13;;;20.30;60.10;;;;;;5094499;23;20119;-59
2022/05/08 10:32:32;;;;;;;3.83;1.90;;;20.30;60.20;;;;;;5095155;23;20452;-59
2022/05/08 10:34:37;;;;;;;6.30;2.20;;;20.30;60.20;;;;;;5092760;23;20569;-59
2022/05/08 10:36:40;;;;;;;6.05;2.00;;;20.30;60.30;;;;;;5091815;23;20348;-59
2022/05/08 10:38:42;;;;;;;3.92;2.03;;;20.30;60.30;;;;;;5094363;23;20094;-59
2022/05/08 10:40:46;;;;;;;3.72;1.70;;;20.30;60.30;;;;;;5070141;23;20060;-59
2022/05/08 10:42:48;;;;;;;5.40;1.80;;;20.30;60.30;;;;;;5091115;23;20419;-59
2022/05/08 10:44:51;;;;;;;5.40;2.47;;;20.30;60.40;;;;;;5091942;23;20496;-59
2022/05/08 10:47:13;;;;;;;3.45;1.65;;;20.20;60.40;;;;;;5097655;23;20529;-59
2022/05/08 10:49:15;;;;;;;4.50;1.73;;;20.20;60.30;;;;;;5089457;23;20032;-58
2022/05/08 10:51:17;;;;;;;3.63;1.55;;;20.20;60.30;;;;;;5097036;23;20032;-59
2022/05/08 10:53:28;;;;;;;3.03;1.50;;;20.20;60.40;;;;;;5066890;23;20452;-57
2022/05/08 10:55:30;;;;;;;4.25;1.55;;;20.10;60.30;;;;;;5087930;23;20424;-58
2022/05/08 10:57:36;;;;;;;2.75;1.90;;;20.10;60.40;;;;;;5063580;23;20429;-59
2022/05/08 10:59:45;;;;;;;3.95;1.70;;;20.10;60.60;;;;;;5089256;23;20024;-59
2022/05/08 11:01:51;;;;;;;1.90;1.27;;;20.10;60.60;;;;;;5060319;23;20028;-59
2022/05/08 11:04:08;;;;;;;2.80;1.80;;;20.10;60.60;;;;;;5067302;23;20108;-59
2022/05/08 11:06:18;;;;;;;4.75;2.10;;;20.10;60.60;;;;;;5095355;23;20198;-60
2022/05/08 11:08:31;;;;;;;3.78;2.00;;;20.10;60.60;;;;;;5096635;23;20051;-61
2022/05/08 11:10:38;;;;;;;3.53;1.70;;;20.10;60.60;;;;;;5098907;23;20031;-61
2022/05/08 11:13:02;;;;;;;4.97;1.80;;;20.10;60.50;;;;;;5095426;23;20524;-60